Time,TemperatureF,DewpointF,PressureIn,WindDirection,WindDirectionDegrees,WindSpeedMPH,WindSpeedGustMPH,Humidity,HourlyPrecipIn,Conditions,Clouds,dailyrainin,SoftwareType,DateUTC
2013-01-13 00:03:00,69.3,64.3,29.76,SSE,156,15.0,15.0,84,0.00,BKN,FEW,0.00,WeatherDisplay:10.37,2013-01-13 06:03:00,
2013-01-13 00:08:00,69.4,64.4,29.76,South,188,4.6,4.6,84,0.00,BKN,FEW,0.00,WeatherDisplay:10.37,2013-01-13 06:08:00,
2013-01-13 00:13:00,69.3,64.3,29.76,SE,140,11.5,11.5,84,0.00,BKN,FEW,0.00,WeatherDisplay:10.37,2013-01-13 06:13:00,
2013-01-13 00:18:00,69.4,64.4,29.76,South,176,10.4,10.4,84,0.00,BKN,FEW,0.00,WeatherDisplay:10.37,2013-01-13 06:18:00,
2013-01-13 00:23:00,69.3,64.3,29.76,SE,144,8.1,8.1,84,0.00,BKN,FEW,0.00,WeatherDisplay:10.37,2013-01-13 06:23:00,
2013-01-13 00:28:00,69.3,64.3,29.77,SSE,160,5.8,5.8,84,0.00,BKN,FEW,0.00,WeatherDisplay:10.37,2013-01-13 06:28:00,
2013-01-13 00:33:00,69.4,64.0,29.77,SSE,167,5.8,5.8,83,0.00,BKN,FEW,0.00,WeatherDisplay:10.37,2013-01-13 06:33:00,
2013-01-13 00:38:00,69.6,63.9,29.77,SSW,198,5.8,5.8,82,0.00,SCT,FEW,0.00,WeatherDisplay:10.37,2013-01-13 06:38:00,
2013-01-13 00:43:00,69.7,64.0,29.76,SSE,168,8.1,8.1,82,0.00,SCT,FEW,0.00,WeatherDisplay:10.37,2013-01-13 06:43:00,
2013-01-13 00:48:00,69.7,64.0,29.76,South,176,6.9,6.9,82,0.00,SCT,FEW,0.00,WeatherDisplay:10.37,2013-01-13 06:48:00,
2013-01-13 00:53:00,69.6,63.9,29.76,South,173,8.1,8.1,82,0.00,SCT,FEW,0.00,WeatherDisplay:10.37,2013-01-13 06:53:00,
2013-01-13 00:58:00,69.8,64.1,29.76,ESE,115,12.7,12.7,82,0.00,SCT,FEW,0.00,WeatherDisplay:10.37,2013-01-13 06:58:00,
2013-01-13 01:03:00,69.9,63.8,29.76,SW,228,13.8,13.8,81,0.00,SCT,FEW,0.00,WeatherDisplay:10.37,2013-01-13 07:03:00,
2013-01-13 01:08:00,70.1,64.0,29.76,SSE,167,9.2,9.2,81,0.00,SCT,FEW,0.00,WeatherDisplay:10.37,2013-01-13 07:08:00,
2013-01-13 01:13:00,70.2,64.1,29.76,West,276,9.2,9.2,81,0.00,SCT,FEW,0.00,WeatherDisplay:10.37,2013-01-13 07:13:00,
2013-01-13 01:18:00,70.1,64.0,29.76,ESE,123,17.1,17.1,81,0.00,SCT,FEW,0.00,WeatherDisplay:10.37,2013-01-13 07:18:00,
2013-01-13 01:23:00,70.1,64.0,29.76,SSE,151,13.8,13.8,81,0.00,BKN,FEW,0.00,WeatherDisplay:10.37,2013-01-13 07:23:00,
2013-01-13 01:28:00,69.9,64.2,29.75,South,173,11.5,11.5,82,0.00,BKN,FEW,0.00,WeatherDisplay:10.37,2013-01-13 07:28:00,
2013-01-13 01:33:00,69.7,64.0,29.76,SSE,167,8.1,8.1,82,0.00,BKN,FEW,0.00,WeatherDisplay:10.37,2013-01-13 07:33:00,
2013-01-13 01:38:00,69.4,64.0,29.76,SSW,192,16.1,16.1,83,0.00,BKN,FEW,0.00,WeatherDisplay:10.37,2013-01-13 07:38:00,
2013-01-13 01:43:00,69.3,63.9,29.76,SE,138,9.2,9.2,83,0.00,BKN,FEW,0.00,WeatherDisplay:10.37,2013-01-13 07:43:00,
2013-01-13 01:48:00,69.1,63.7,29.76,South,180,9.2,9.2,83,0.00,BKN,FEW,0.00,WeatherDisplay:10.37,2013-01-13 07:48:00,
2013-01-13 01:53:00,69.0,64.0,29.77,SW,219,8.1,8.1,84,0.00,BKN,FEW,0.00,WeatherDisplay:10.37,2013-01-13 07:53:00,
2013-01-13 01:58:00,69.0,64.0,29.77,SE,144,10.4,10.4,84,0.00,BKN,FEW,0.00,WeatherDisplay:10.37,2013-01-13 07:58:00,
2013-01-13 02:03:00,69.0,64.0,29.77,SSW,196,5.8,5.8,84,0.00,BKN,FEW,0.00,WeatherDisplay:10.37,2013-01-13 08:03:00,
2013-01-13 02:08:00,68.9,63.9,29.78,SSE,156,10.4,10.4,84,0.00,BKN,FEW,0.00,WeatherDisplay:10.37,2013-01-13 08:08:00,
2013-01-13 02:13:00,68.9,63.9,29.78,SE,143,6.9,6.9,84,0.00,BKN,FEW,0.00,WeatherDisplay:10.37,2013-01-13 08:13:00,
2013-01-13 02:18:00,68.9,63.5,29.78,SW,225,6.9,6.9,83,0.00,BKN,FEW,0.00,WeatherDisplay:10.37,2013-01-13 08:18:00,
2013-01-13 02:23:00,68.9,63.5,29.78,SE,133,6.9,6.9,83,0.00,BKN,FEW,0.00,WeatherDisplay:10.37,2013-01-13 08:23:00,
2013-01-13 02:28:00,69.0,63.6,29.79,ESE,111,8.1,8.1,83,0.00,BKN,FEW,0.00,WeatherDisplay:10.37,2013-01-13 08:28:00,
2013-01-13 02:33:00,69.0,63.6,29.79,SSW,201,7.5,7.5,83,0.00,BKN,FEW,0.00,WeatherDisplay:10.37,2013-01-13 08:33:00,
2013-01-13 02:38:00,69.2,63.8,29.78,SE,146,7.5,7.5,83,0.00,BKN,FEW,0.00,WeatherDisplay:10.37,2013-01-13 08:38:00,
2013-01-13 02:43:00,69.3,63.6,29.78,South,180,11.5,11.5,82,0.00,BKN,FEW,0.00,WeatherDisplay:10.37,2013-01-13 08:43:00,
2013-01-13 02:48:00,69.3,63.6,29.78,ESE,103,8.1,8.1,82,0.00,BKN,FEW,0.00,WeatherDisplay:10.37,2013-01-13 08:48:00,
2013-01-13 02:53:00,69.4,63.3,29.77,SE,134,6.9,6.9,81,0.00,BKN,FEW,0.00,WeatherDisplay:10.37,2013-01-13 08:53:00,
2013-01-13 02:58:00,69.4,63.3,29.78,SW,233,8.1,8.1,81,0.00,BKN,FEW,0.00,WeatherDisplay:10.37,2013-01-13 08:58:00,
2013-01-13 03:04:00,69.4,63.3,29.78,WSW,240,5.8,5.8,81,0.00,OVC,FEW,0.00,WeatherDisplay:10.37,2013-01-13 09:04:00,
2013-01-13 03:09:00,69.2,63.8,29.81,WNW,290,6.9,6.9,83,0.00,OVC,FEW,0.00,WeatherDisplay:10.37,2013-01-13 09:09:00,
2013-01-13 03:14:00,67.5,62.5,29.83,WNW,302,15.0,15.0,84,0.08,RA,FEW,0.13,WeatherDisplay:10.37,2013-01-13 09:14:00,
2013-01-13 03:19:00,64.3,61.0,29.82,SW,234,12.7,12.7,89,0.24,RA,FEW,0.25,WeatherDisplay:10.37,2013-01-13 09:19:00,
2013-01-13 03:24:00,63.0,60.6,29.82,SW,232,5.8,5.8,92,0.32,RA,FEW,0.32,WeatherDisplay:10.37,2013-01-13 09:24:00,
2013-01-13 03:29:00,62.5,60.4,29.81,WSW,242,5.8,5.8,93,0.34,RA,FEW,0.35,WeatherDisplay:10.37,2013-01-13 09:29:00,
2013-01-13 03:34:00,62.2,60.5,29.82,SW,222,4.3,4.3,94,0.36,RA,FEW,0.37,WeatherDisplay:10.37,2013-01-13 09:34:00,
2013-01-13 03:39:00,62.1,60.7,29.82,SSW,194,2.3,2.3,95,0.38,RA,FEW,0.38,WeatherDisplay:10.37,2013-01-13 09:39:00,
2013-01-13 03:44:00,62.0,60.6,29.82,WSW,245,0.0,0.0,95,0.39,RA,FEW,0.39,WeatherDisplay:10.37,2013-01-13 09:44:00,
2013-01-13 03:49:00,62.0,60.6,29.82,SSW,209,2.3,2.3,95,0.40, +RA,FEW,0.40,WeatherDisplay:10.37,2013-01-13 09:49:00,
2013-01-13 03:54:00,62.0,60.6,29.82,SSW,209,0.0,0.1,95,0.40, +RA,FEW,0.40,WeatherDisplay:10.37,2013-01-13 09:54:00,
2013-01-13 03:59:00,61.9,60.7,29.83,SSE,153,4.6,4.6,96,0.42, +RA,FEW,0.42,WeatherDisplay:10.37,2013-01-13 09:59:00,
2013-01-13 04:04:00,61.9,60.7,29.84,SW,219,2.3,2.3,96,0.43,RA,FEW,0.43,WeatherDisplay:10.37,2013-01-13 10:04:00,
2013-01-13 04:09:00,61.8,60.6,29.83,WNW,301,2.3,0.0,96,0.44,RA,FEW,0.44,WeatherDisplay:10.37,2013-01-13 10:09:00,
2013-01-13 04:14:00,61.7,60.5,29.84,SSW,213,0.0,0.0,96,0.38,RA,FEW,0.46,WeatherDisplay:10.37,2013-01-13 10:14:00,
2013-01-13 04:19:00,61.7,60.5,29.84,WSW,253,5.8,5.8,96,0.21,-RA,FEW,0.47,WeatherDisplay:10.37,2013-01-13 10:19:00,
2013-01-13 04:24:00,61.5,60.3,29.84,SW,228,2.3,2.3,96,0.17,-RA,FEW,0.49,WeatherDisplay:10.37,2013-01-13 10:24:00,
2013-01-13 04:29:00,61.4,60.2,29.85,WNW,288,4.6,4.6,96,0.15,-RA,FEW,0.50,WeatherDisplay:10.37,2013-01-13 10:29:00,
2013-01-13 04:34:00,61.2,60.1,29.86,SW,236,2.3,2.3,96,0.14,-RA,FEW,0.51,WeatherDisplay:10.37,2013-01-13 10:34:00,
2013-01-13 04:39:00,61.1,60.0,29.84,SW,236,0.0,0.0,96,0.14,-RA,FEW,0.52,WeatherDisplay:10.37,2013-01-13 10:39:00,
2013-01-13 04:44:00,61.1,60.0,29.84,SW,236,0.0,0.0,96,0.15,-RA,FEW,0.54,WeatherDisplay:10.37,2013-01-13 10:44:00,
2013-01-13 04:49:00,61.0,59.9,29.84,SW,236,0.0,0.0,96,0.15,-RA,FEW,0.55,WeatherDisplay:10.37,2013-01-13 10:49:00,
2013-01-13 04:54:00,60.9,59.8,29.84,SW,236,0.0,0.0,96,0.16,-RA,FEW,0.56,WeatherDisplay:10.37,2013-01-13 10:54:00,
2013-01-13 04:59:00,60.9,59.8,29.85,SW,236,0.0,0.0,96,0.15,-RA,FEW,0.57,WeatherDisplay:10.37,2013-01-13 10:59:00,
2013-01-13 05:04:00,60.9,59.8,29.85,SW,236,1.1,1.1,96,0.16,RA,FEW,0.59,WeatherDisplay:10.37,2013-01-13 11:04:00,
2013-01-13 05:09:00,60.8,59.7,29.86,SW,236,1.1,1.1,96,0.16,RA,FEW,0.60,WeatherDisplay:10.37,2013-01-13 11:09:00,
2013-01-13 05:14:00,59.8,58.1,29.87,WSW,253,3.5,3.5,94,0.16,RA,FEW,0.62,WeatherDisplay:10.37,2013-01-13 11:14:00,
2013-01-13 05:19:00,57.7,55.4,29.87,WSW,257,6.9,6.9,92,0.16,RA,FEW,0.63,WeatherDisplay:10.37,2013-01-13 11:19:00,
2013-01-13 05:24:00,56.2,54.2,29.87,WSW,253,5.8,5.8,93,0.15,RA,FEW,0.64,WeatherDisplay:10.37,2013-01-13 11:24:00,
2013-01-13 05:29:00,55.2,53.5,29.87,WNW,294,3.5,3.5,94,0.15,RA,FEW,0.65,WeatherDisplay:10.37,2013-01-13 11:29:00,
2013-01-13 05:34:00,54.6,53.2,29.87,West,269,2.3,2.3,95,0.15,RA,FEW,0.66,WeatherDisplay:10.37,2013-01-13 11:34:00,
2013-01-13 05:39:00,54.3,52.9,29.87,WSW,256,1.1,0.0,95,0.14,RA,FEW,0.66,WeatherDisplay:10.37,2013-01-13 11:39:00,
2013-01-13 05:44:00,54.0,52.9,29.87,WSW,256,0.0,0.0,96,0.13,RA,FEW,0.67,WeatherDisplay:10.37,2013-01-13 11:44:00,
2013-01-13 05:49:00,53.8,52.7,29.87,WSW,256,2.3,2.3,96,0.13,RA,FEW,0.68,WeatherDisplay:10.37,2013-01-13 11:49:00,
2013-01-13 05:54:00,53.6,52.5,29.87,WSW,256,1.1,1.1,96,0.12,RA,FEW,0.68,WeatherDisplay:10.37,2013-01-13 11:54:00,
2013-01-13 05:59:00,53.5,52.4,29.88,WSW,256,0.0,0.0,96,0.12,RA,FEW,0.69,WeatherDisplay:10.37,2013-01-13 11:59:00,
2013-01-13 06:04:00,53.5,52.4,29.88,WSW,256,0.0,0.0,96,0.11,-RA,FEW,0.70,WeatherDisplay:10.37,2013-01-13 12:04:00,
2013-01-13 06:09:00,53.5,52.7,29.88,WSW,256,0.0,0.0,97,0.10,-RA,FEW,0.70,WeatherDisplay:10.37,2013-01-13 12:09:00,
2013-01-13 06:14:00,53.6,52.8,29.89,WSW,256,0.0,0.0,97,0.09,-RA,FEW,0.72,WeatherDisplay:10.37,2013-01-13 12:14:00,
2013-01-13 06:19:00,53.6,52.8,29.88,WSW,256,0.0,0.0,97,0.10,-RA,FEW,0.73,WeatherDisplay:10.37,2013-01-13 12:19:00,
2013-01-13 06:24:00,53.7,52.9,29.87,WSW,255,0.0,0.0,97,0.10,-RA,FEW,0.74,WeatherDisplay:10.37,2013-01-13 12:24:00,
2013-01-13 06:29:00,53.9,53.1,29.86,NE,53,2.3,2.3,97,0.10,-RA,FEW,0.75,WeatherDisplay:10.37,2013-01-13 12:29:00,
2013-01-13 06:34:00,53.9,53.1,29.87,NE,53,0.0,0.0,97,0.10,-RA,FEW,0.76,WeatherDisplay:10.37,2013-01-13 12:34:00,
2013-01-13 06:39:00,54.0,53.2,29.88,NE,53,0.0,0.0,97,0.10,-RA,FEW,0.76,WeatherDisplay:10.37,2013-01-13 12:39:00,
2013-01-13 06:44:00,54.1,53.3,29.88,NE,53,0.0,0.0,97,0.09,-RA,FEW,0.76,WeatherDisplay:10.37,2013-01-13 12:44:00,
2013-01-13 06:49:00,54.3,53.5,29.88,NE,53,0.0,0.0,97,0.09,-RA,FEW,0.77,WeatherDisplay:10.37,2013-01-13 12:49:00,
2013-01-13 06:54:00,54.4,53.6,29.89,NE,53,0.0,0.0,97,0.10,-RA,FEW,0.78,WeatherDisplay:10.37,2013-01-13 12:54:00,
2013-01-13 06:59:00,54.5,53.7,29.89,NE,53,0.0,0.0,97,0.10,-RA,FEW,0.79,WeatherDisplay:10.37,2013-01-13 12:59:00,
2013-01-13 07:04:00,54.6,54.0,29.89,NE,53,0.0,0.0,98,0.10,-RA,FEW,0.80,WeatherDisplay:10.37,2013-01-13 13:04:00,
2013-01-13 07:09:00,54.7,54.1,29.89,NE,53,0.0,0.0,98,0.12,-RA,FEW,0.82,WeatherDisplay:10.37,2013-01-13 13:09:00,
2013-01-13 07:14:00,54.8,54.2,29.89,NE,53,1.1,1.1,98,0.13,-RA,FEW,0.84,WeatherDisplay:10.37,2013-01-13 13:14:00,
2013-01-13 07:19:00,55.0,54.4,29.88,NE,53,1.1,1.1,98,0.12,-RA,FEW,0.85,WeatherDisplay:10.37,2013-01-13 13:19:00,
2013-01-13 07:24:00,55.1,54.5,29.87,NE,53,3.5,3.5,98,0.12,-RA,FEW,0.86,WeatherDisplay:10.37,2013-01-13 13:24:00,
2013-01-13 07:29:00,55.2,54.6,29.85,ENE,57,3.5,3.8,98,0.13,-RA,FEW,0.88,WeatherDisplay:10.37,2013-01-13 13:29:00,
2013-01-13 07:34:00,55.3,54.7,29.84,ENE,57,5.8,5.8,98,0.12,-RA,FEW,0.88,WeatherDisplay:10.37,2013-01-13 13:34:00,
2013-01-13 07:39:00,55.5,54.9,29.85,NE,53,2.3,0.0,98,0.13,-RA,FEW,0.89,WeatherDisplay:10.37,2013-01-13 13:39:00,
2013-01-13 07:44:00,55.6,55.0,29.86,West,280,2.3,2.3,98,0.14,-RA,FEW,0.90,WeatherDisplay:10.37,2013-01-13 13:44:00,
2013-01-13 07:49:00,55.7,55.1,29.87,WSW,254,2.3,2.3,98,0.13,-RA,FEW,0.90,WeatherDisplay:10.37,2013-01-13 13:49:00,
2013-01-13 07:54:00,55.4,54.8,29.86,WSW,254,4.6,4.6,98,0.13,-RA,FEW,0.91,WeatherDisplay:10.37,2013-01-13 13:54:00,
2013-01-13 07:59:00,54.9,54.1,29.87,WSW,253,3.5,3.5,97,0.13,-RA,FEW,0.92,WeatherDisplay:10.37,2013-01-13 13:59:00,
2013-01-13 08:04:00,54.4,53.6,29.87,WSW,244,4.6,4.6,97,0.12,-RA,FEW,0.92,WeatherDisplay:10.37,2013-01-13 14:04:00,
2013-01-13 08:09:00,53.9,53.1,29.88,WSW,243,3.5,3.5,97,0.11,-RA,FEW,0.94,WeatherDisplay:10.37,2013-01-13 14:09:00,
2013-01-13 08:14:00,53.6,52.8,29.88,WSW,245,1.1,1.3,97,0.11,-RA,FEW,0.95,WeatherDisplay:10.37,2013-01-13 14:14:00,
2013-01-13 08:19:00,53.4,52.6,29.88,West,281,3.5,3.5,97,0.11,-RA,FEW,0.96,WeatherDisplay:10.37,2013-01-13 14:19:00,
2013-01-13 08:25:00,53.1,52.3,29.88,NW,304,5.8,5.8,97,0.12,-RA,FEW,0.98,WeatherDisplay:10.37,2013-01-13 14:25:00,
2013-01-13 08:30:00,52.6,51.8,29.88,WNW,282,6.4,6.4,97,0.11,-RA,FEW,1.00,WeatherDisplay:10.37,2013-01-13 14:30:00,
2013-01-13 08:35:00,52.1,51.3,29.88,WNW,284,4.6,4.6,97,0.14, +DZ,FEW,1.03,WeatherDisplay:10.37,2013-01-13 14:35:00,
2013-01-13 08:40:00,52.0,51.2,29.89,WSW,254,3.5,3.5,97,0.16, +DZ,FEW,1.05,WeatherDisplay:10.37,2013-01-13 14:40:00,
2013-01-13 08:45:00,51.6,50.8,29.89,West,277,2.3,2.3,97,0.17, +DZ,FEW,1.08,WeatherDisplay:10.37,2013-01-13 14:45:00,
2013-01-13 08:50:00,50.8,49.7,29.89,WNW,284,5.8,5.8,96,0.20, +DZ,FEW,1.10,WeatherDisplay:10.37,2013-01-13 14:50:00,
2013-01-13 08:55:00,50.2,49.1,29.89,WNW,292,3.5,3.5,96,0.21,-RA,FEW,1.12,WeatherDisplay:10.37,2013-01-13 14:55:00,
2013-01-13 09:00:00,49.9,48.8,29.90,West,281,2.3,2.3,96,0.22,-RA,FEW,1.14,WeatherDisplay:10.37,2013-01-13 15:00:00,
2013-01-13 09:05:00,49.7,48.9,29.89,West,277,5.8,5.8,97,0.24,-RA,FEW,1.16,WeatherDisplay:10.37,2013-01-13 15:05:00,
2013-01-13 09:10:00,49.4,48.6,29.89,WSW,248,5.8,5.8,97,0.25,-RA,FEW,1.18,WeatherDisplay:10.37,2013-01-13 15:10:00,
2013-01-13 09:15:00,49.2,48.4,29.89,WNW,296,6.9,6.9,97,0.25,-RA,FEW,1.20,WeatherDisplay:10.37,2013-01-13 15:15:00,
2013-01-13 09:20:00,48.8,48.0,29.88,NNW,335,4.6,4.6,97,0.26,RA,FEW,1.23,WeatherDisplay:10.37,2013-01-13 15:20:00,
2013-01-13 09:25:00,48.5,47.7,29.89,North,355,6.9,6.9,97,0.26,RA,FEW,1.25,WeatherDisplay:10.37,2013-01-13 15:25:00,
2013-01-13 09:30:00,48.3,47.5,29.90,WNW,293,3.5,3.5,97,0.27,RA,FEW,1.28,WeatherDisplay:10.37,2013-01-13 15:30:00,
2013-01-13 09:35:00,48.1,47.0,29.91,WNW,292,3.5,3.5,96,0.26,RA,FEW,1.29,WeatherDisplay:10.37,2013-01-13 15:35:00,
2013-01-13 09:40:00,47.6,46.5,29.92,WSW,249,4.6,4.6,96,0.26,RA,FEW,1.31,WeatherDisplay:10.37,2013-01-13 15:40:00,
2013-01-13 09:45:00,47.2,46.1,29.92,West,270,4.6,4.6,96,0.24,RA,FEW,1.32,WeatherDisplay:10.37,2013-01-13 15:45:00,
2013-01-13 09:50:00,46.7,45.6,29.92,NW,310,3.5,3.5,96,0.24,RA,FEW,1.34,WeatherDisplay:10.37,2013-01-13 15:50:00,
2013-01-13 09:55:00,46.5,45.4,29.93,WNW,286,4.6,4.6,96,0.24,RA,FEW,1.36,WeatherDisplay:10.37,2013-01-13 15:55:00,
2013-01-13 10:00:00,46.1,45.0,29.93,NNE,12,3.5,3.5,96,0.24,RA,FEW,1.38,WeatherDisplay:10.37,2013-01-13 16:00:00,
2013-01-13 10:05:00,45.8,44.7,29.93,NNW,340,5.8,5.8,96,0.25,RA,FEW,1.41,WeatherDisplay:10.37,2013-01-13 16:05:00,
2013-01-13 10:10:00,45.6,44.5,29.93,NNW,329,4.6,4.6,96,0.25,RA,FEW,1.43,WeatherDisplay:10.37,2013-01-13 16:10:00,
2013-01-13 10:15:00,45.2,44.1,29.93,NW,320,5.8,5.8,96,0.25,RA,FEW,1.45,WeatherDisplay:10.37,2013-01-13 16:15:00,
2013-01-13 10:20:00,44.6,43.5,29.93,WNW,290,6.9,6.9,96,0.24,RA,FEW,1.47,WeatherDisplay:10.37,2013-01-13 16:20:00,
2013-01-13 10:25:00,44.3,43.2,29.92,North,9,5.8,5.8,96,0.24,RA,FEW,1.49,WeatherDisplay:10.37,2013-01-13 16:25:00,
2013-01-13 10:30:00,44.2,43.1,29.91,NNE,28,5.8,5.8,96,0.22,RA,FEW,1.50,WeatherDisplay:10.37,2013-01-13 16:30:00,
2013-01-13 10:35:00,44.0,42.9,29.90,NNE,32,8.1,8.1,96,0.21,RA,FEW,1.50,WeatherDisplay:10.37,2013-01-13 16:35:00,
2013-01-13 10:40:00,43.8,42.7,29.90,NNW,333,4.6,4.6,96,0.19,RA,FEW,1.50,WeatherDisplay:10.37,2013-01-13 16:40:00,
2013-01-13 10:45:00,43.7,42.6,29.92,WNW,296,3.5,3.5,96,0.19,RA,FEW,1.51,WeatherDisplay:10.37,2013-01-13 16:45:00,
2013-01-13 10:50:00,43.4,42.1,29.93,NNW,333,8.1,8.1,95,0.17, +RA,FEW,1.51,WeatherDisplay:10.37,2013-01-13 16:50:00,
2013-01-13 10:55:00,43.3,42.0,29.92,NNW,336,7.5,7.5,95,0.16, +RA,FEW,1.52,WeatherDisplay:10.37,2013-01-13 16:55:00,
2013-01-13 11:00:00,43.1,42.0,29.92,NW,315,3.5,3.5,96,0.15, +RA,FEW,1.53,WeatherDisplay:10.37,2013-01-13 17:00:00,
2013-01-13 11:05:00,43.0,41.9,29.92,NNW,331,0.0,0.0,96,0.13, +RA,FEW,1.54,WeatherDisplay:10.37,2013-01-13 17:05:00,
2013-01-13 11:10:00,42.9,41.8,29.91,WNW,303,3.5,3.5,96,0.11, +RA,FEW,1.54,WeatherDisplay:10.37,2013-01-13 17:10:00,
2013-01-13 11:15:00,42.9,41.8,29.90,NNE,15,4.6,4.6,96,0.09, +RA,FEW,1.54,WeatherDisplay:10.37,2013-01-13 17:15:00,
2013-01-13 11:20:00,42.8,41.7,29.90,NNW,333,2.3,2.3,96,0.07, +RA,FEW,1.54,WeatherDisplay:10.37,2013-01-13 17:20:00,
2013-01-13 11:25:00,42.7,41.6,29.90,NW,306,3.5,3.5,96,0.06, +RA,FEW,1.55,WeatherDisplay:10.37,2013-01-13 17:25:00,
2013-01-13 11:30:00,42.6,41.5,29.90,NW,310,3.5,3.5,96,0.07, +RA,FEW,1.56,WeatherDisplay:10.37,2013-01-13 17:30:00,
2013-01-13 11:35:00,42.4,41.3,29.91,WNW,296,3.5,3.5,96,0.07, +RA,FEW,1.57,WeatherDisplay:10.37,2013-01-13 17:35:00,
2013-01-13 11:40:00,42.2,41.1,29.91,NNW,336,5.8,5.8,96,0.08, +RA,FEW,1.58,WeatherDisplay:10.37,2013-01-13 17:40:00,
2013-01-13 11:45:00,42.1,41.0,29.91,NW,304,4.6,4.6,96,0.09, +RA,FEW,1.60,WeatherDisplay:10.37,2013-01-13 17:45:00,
2013-01-13 11:50:00,42.0,40.9,29.91,North,5,8.1,8.1,96,0.11, +RA,FEW,1.62,WeatherDisplay:10.37,2013-01-13 17:50:00,
2013-01-13 11:55:00,41.9,40.8,29.90,WNW,297,4.6,4.6,96,0.10, +RA,FEW,1.62,WeatherDisplay:10.37,2013-01-13 17:55:00,
2013-01-13 12:00:00,41.8,40.7,29.91,NW,317,4.6,4.6,96,0.09, +RA,FEW,1.62,WeatherDisplay:10.37,2013-01-13 18:00:00,
2013-01-13 12:05:00,41.8,40.7,29.91,WNW,283,8.1,8.1,96,0.09,RA,FEW,1.63,WeatherDisplay:10.37,2013-01-13 18:05:00,
2013-01-13 12:10:00,41.7,40.6,29.91,NW,316,5.8,5.8,96,0.10,RA,FEW,1.64,WeatherDisplay:10.37,2013-01-13 18:10:00,
2013-01-13 12:15:00,41.7,40.6,29.93,WNW,286,4.6,4.6,96,0.10,RA,FEW,1.64,WeatherDisplay:10.37,2013-01-13 18:15:00,
2013-01-13 12:20:00,41.8,40.7,29.93,NW,306,6.9,6.9,96,0.11,RA,FEW,1.65,WeatherDisplay:10.37,2013-01-13 18:20:00,
2013-01-13 12:25:00,41.8,40.7,29.93,West,281,5.8,5.8,96,0.11,RA,FEW,1.66,WeatherDisplay:10.37,2013-01-13 18:25:00,
2013-01-13 12:30:00,41.8,41.0,29.93,WNW,288,8.1,8.1,97,0.10,RA,FEW,1.66,WeatherDisplay:10.37,2013-01-13 18:30:00,
2013-01-13 12:35:00,41.5,40.4,29.92,WNW,295,8.1,8.1,96,0.09, +RA,FEW,1.66,WeatherDisplay:10.37,2013-01-13 18:35:00,
2013-01-13 12:40:00,41.4,40.3,29.90,North,9,3.2,3.2,96,0.08, +RA,FEW,1.66,WeatherDisplay:10.37,2013-01-13 18:40:00,
2013-01-13 12:45:00,41.3,40.2,29.91,West,279,6.9,6.9,96,0.06, +RA,FEW,1.66,WeatherDisplay:10.37,2013-01-13 18:45:00,
2013-01-13 12:50:00,41.2,40.1,29.92,NW,315,5.8,6.3,96,0.05, +RA,FEW,1.68,WeatherDisplay:10.37,2013-01-13 18:50:00,
2013-01-13 12:55:00,41.3,40.2,29.93,WNW,291,6.9,6.9,96,0.06, +RA,FEW,1.68,WeatherDisplay:10.37,2013-01-13 18:55:00,
2013-01-13 13:00:00,41.2,40.1,29.94,WNW,295,6.9,6.9,96,0.06, +RA,FEW,1.68,WeatherDisplay:10.37,2013-01-13 19:00:00,
2013-01-13 13:05:00,41.0,39.7,29.91,NW,323,6.9,6.9,95,0.06, +RA,FEW,1.69,WeatherDisplay:10.37,2013-01-13 19:05:00,
2013-01-13 13:10:00,40.8,39.5,29.91,North,355,4.6,4.6,95,0.06, +RA,FEW,1.70,WeatherDisplay:10.37,2013-01-13 19:10:00,
2013-01-13 13:15:00,40.7,39.4,29.92,North,355,3.5,3.5,95,0.06, +RA,FEW,1.70,WeatherDisplay:10.37,2013-01-13 19:15:00,
2013-01-13 13:20:00,40.6,39.3,29.92,NW,308,2.3,2.4,95,0.06, +RA,FEW,1.71,WeatherDisplay:10.37,2013-01-13 19:20:00,
2013-01-13 13:25:00,40.7,39.4,29.94,WNW,286,9.2,9.2,95,0.06, +RA,FEW,1.72,WeatherDisplay:10.37,2013-01-13 19:25:00,
2013-01-13 13:30:00,40.6,39.3,29.93,NW,323,9.2,9.2,95,0.06, +RA,FEW,1.73,WeatherDisplay:10.37,2013-01-13 19:30:00,
2013-01-13 13:35:00,40.4,39.1,29.93,WNW,294,9.2,9.2,95,0.08,RA,FEW,1.74,WeatherDisplay:10.37,2013-01-13 19:35:00,
2013-01-13 13:40:00,40.3,39.0,29.95,NNW,341,9.2,9.2,95,0.09,RA,FEW,1.75,WeatherDisplay:10.37,2013-01-13 19:40:00,
2013-01-13 13:46:00,40.2,38.9,29.94,NNW,342,8.1,8.1,95,0.10,RA,FEW,1.76,WeatherDisplay:10.37,2013-01-13 19:46:00,
2013-01-13 13:51:00,40.1,38.8,29.95,WNW,298,6.4,6.4,95,0.09,-RA,FEW,1.77,WeatherDisplay:10.37,2013-01-13 19:51:00,
2013-01-13 13:56:00,40.1,39.1,29.95,NW,317,8.1,8.1,96,0.09,-RA,FEW,1.78,WeatherDisplay:10.37,2013-01-13 19:56:00,
2013-01-13 14:01:00,40.1,39.1,29.96,WNW,302,10.4,10.4,96,0.11,-RA,FEW,1.80,WeatherDisplay:10.37,2013-01-13 20:01:00,
2013-01-13 14:06:00,39.9,38.6,29.97,WNW,290,5.8,5.8,95,0.12,-RA,FEW,1.81,WeatherDisplay:10.37,2013-01-13 20:06:00,
2013-01-13 14:11:00,39.8,38.5,29.98,NNW,342,6.9,6.9,95,0.13,-RA,FEW,1.84,WeatherDisplay:10.37,2013-01-13 20:11:00,
2013-01-13 14:16:00,39.5,38.2,29.95,WSW,252,11.5,11.5,95,0.15,-RA,FEW,1.86,WeatherDisplay:10.37,2013-01-13 20:16:00,
2013-01-13 14:21:00,39.4,38.1,29.97,North,355,3.5,5.8,95,0.16,-RA,FEW,1.87,WeatherDisplay:10.37,2013-01-13 20:21:00,
2013-01-13 14:26:00,39.2,37.9,29.97,WNW,294,10.4,10.4,95,0.16,-RA,FEW,1.89,WeatherDisplay:10.37,2013-01-13 20:26:00,
2013-01-13 14:31:00,38.9,37.6,29.98,WNW,288,8.1,8.1,95,0.18,-RA,FEW,1.90,WeatherDisplay:10.37,2013-01-13 20:31:00,
2013-01-13 14:36:00,38.7,37.4,29.99,WNW,294,12.7,12.7,95,0.16, +RA,FEW,1.90,WeatherDisplay:10.37,2013-01-13 20:36:00,
2013-01-13 14:41:00,38.3,36.5,30.00,WNW,283,12.7,12.7,93,0.15, +RA,FEW,1.90,WeatherDisplay:10.37,2013-01-13 20:41:00,
2013-01-13 14:46:00,38.0,36.4,30.00,NNW,331,15.0,15.0,94,0.14, +RA,FEW,1.90,WeatherDisplay:10.37,2013-01-13 20:46:00,
2013-01-13 14:51:00,37.9,36.3,30.00,WNW,296,9.2,9.2,94,0.14, +RA,FEW,1.91,WeatherDisplay:10.37,2013-01-13 20:51:00,
2013-01-13 14:56:00,37.8,36.2,30.00,NNW,336,6.9,6.9,94,0.14, +RA,FEW,1.91,WeatherDisplay:10.37,2013-01-13 20:56:00,
2013-01-13 15:01:00,37.7,36.4,30.01,WNW,300,6.9,6.9,95,0.12, +RA,FEW,1.92,WeatherDisplay:10.37,2013-01-13 21:01:00,
2013-01-13 15:06:00,37.7,36.4,30.01,NNW,336,10.4,10.4,95,0.10, +RA,FEW,1.92,WeatherDisplay:10.37,2013-01-13 21:06:00,
2013-01-13 15:11:00,37.6,36.0,30.01,NNW,334,8.1,8.1,94,0.08, +RA,FEW,1.92,WeatherDisplay:10.37,2013-01-13 21:11:00,
2013-01-13 15:16:00,37.4,35.8,30.01,NW,317,13.8,13.8,94,0.07, +RA,FEW,1.92,WeatherDisplay:10.37,2013-01-13 21:16:00,
2013-01-13 15:21:00,37.3,35.7,30.02,West,268,8.1,8.1,94,0.06,RA,FEW,1.93,WeatherDisplay:10.37,2013-01-13 21:21:00,
2013-01-13 15:26:00,37.3,36.0,30.03,NW,306,6.9,6.9,95,0.05,RA,FEW,1.93,WeatherDisplay:10.37,2013-01-13 21:26:00,
2013-01-13 15:31:00,37.2,35.9,30.04,West,272,8.1,8.1,95,0.04,-RA,FEW,1.94,WeatherDisplay:10.37,2013-01-13 21:31:00,
2013-01-13 15:36:00,37.1,35.5,30.04,North,360,9.2,9.2,94,0.04,-RA,FEW,1.94,WeatherDisplay:10.37,2013-01-13 21:36:00,
2013-01-13 15:41:00,36.9,35.3,30.04,West,281,5.8,5.8,94,0.05,-RA,FEW,1.95,WeatherDisplay:10.37,2013-01-13 21:41:00,
2013-01-13 15:46:00,36.8,35.2,30.04,NNW,346,5.8,5.8,94,0.06,-RA,FEW,1.96,WeatherDisplay:10.37,2013-01-13 21:46:00,
2013-01-13 15:51:00,36.8,35.5,30.05,NW,308,8.1,8.1,95,0.06,-RA,FEW,1.96,WeatherDisplay:10.37,2013-01-13 21:51:00,
2013-01-13 15:56:00,36.5,34.9,30.05,WNW,296,6.9,6.9,94,0.05,-RA,FEW,1.96,WeatherDisplay:10.37,2013-01-13 21:56:00,
2013-01-13 16:01:00,36.3,34.7,30.06,WNW,289,8.1,8.1,94,0.05,OVC,FEW,1.96,WeatherDisplay:10.37,2013-01-13 22:01:00,
2013-01-13 16:06:00,36.2,34.6,30.08,NNW,338,6.9,6.9,94,0.04,OVC,FEW,1.96,WeatherDisplay:10.37,2013-01-13 22:06:00,
2013-01-13 16:11:00,36.0,34.4,30.09,NW,325,9.2,9.2,94,0.04,OVC,FEW,1.96,WeatherDisplay:10.37,2013-01-13 22:11:00,
2013-01-13 16:16:00,36.0,34.7,30.11,WNW,292,10.4,10.4,95,0.05,RA,FEW,1.97,WeatherDisplay:10.37,2013-01-13 22:16:00,
2013-01-13 16:21:00,36.0,34.7,30.12,WNW,284,8.1,8.1,95,0.05,RA,FEW,1.97,WeatherDisplay:10.37,2013-01-13 22:21:00,
2013-01-13 16:26:00,35.8,34.2,30.11,NNW,337,11.5,11.5,94,0.04,OVC,FEW,1.97,WeatherDisplay:10.37,2013-01-13 22:26:00,
2013-01-13 16:31:00,35.7,34.1,30.10,NW,304,8.1,8.1,94,0.04,-RA,FEW,1.98,WeatherDisplay:10.37,2013-01-13 22:31:00,
2013-01-13 16:36:00,35.7,34.1,30.11,NW,325,8.1,8.1,94,0.04,-RA,FEW,1.98,WeatherDisplay:10.37,2013-01-13 22:36:00,
2013-01-13 16:41:00,35.6,34.0,30.11,North,5,13.8,13.8,94,0.03,-RA,FEW,1.98,WeatherDisplay:10.37,2013-01-13 22:41:00,
2013-01-13 16:46:00,35.6,34.0,30.13,WNW,294,8.1,8.1,94,0.02,-RA,FEW,1.98,WeatherDisplay:10.37,2013-01-13 22:46:00,
2013-01-13 16:51:00,35.6,34.0,30.14,NW,304,3.5,3.5,94,0.02,OVC,FEW,1.98,WeatherDisplay:10.37,2013-01-13 22:51:00,
2013-01-13 16:56:00,35.6,34.3,30.14,WNW,295,8.1,8.1,95,0.02,OVC,FEW,1.98,WeatherDisplay:10.37,2013-01-13 22:56:00,
2013-01-13 17:01:00,35.5,33.9,30.14,NNW,332,8.1,8.1,94,0.02,-RA,FEW,1.98,WeatherDisplay:10.37,2013-01-13 23:01:00,
2013-01-13 17:06:00,35.2,33.4,30.14,WNW,287,15.0,15.0,93,0.02,-RA,FEW,1.98,WeatherDisplay:10.37,2013-01-13 23:06:00,
2013-01-13 17:11:00,35.1,33.3,30.14,WNW,284,9.2,9.2,93,0.02,-RA,FEW,1.98,WeatherDisplay:10.37,2013-01-13 23:11:00,
2013-01-13 17:16:00,35.0,33.2,30.15,West,280,6.9,6.9,93,0.01,-RA,FEW,1.98,WeatherDisplay:10.37,2013-01-13 23:16:00,
2013-01-13 17:21:00,35.0,33.4,30.15,WNW,293,8.1,8.1,94,0.01,-DZ,FEW,1.98,WeatherDisplay:10.37,2013-01-13 23:21:00,
2013-01-13 17:26:00,35.0,33.4,30.16,WSW,252,6.9,6.9,94,0.01,-DZ,FEW,1.98,WeatherDisplay:10.37,2013-01-13 23:26:00,
2013-01-13 17:31:00,35.0,33.4,30.16,WNW,289,8.1,8.1,94,0.00,-DZ,FEW,1.98,WeatherDisplay:10.37,2013-01-13 23:31:00,
2013-01-13 17:36:00,35.0,33.4,30.17,WNW,294,4.6,4.6,94,0.00,-DZ,FEW,1.98,WeatherDisplay:10.37,2013-01-13 23:36:00,
2013-01-13 17:41:00,34.9,33.3,30.16,NW,313,4.6,4.6,94,0.00,-DZ,FEW,1.98,WeatherDisplay:10.37,2013-01-13 23:41:00,
2013-01-13 17:46:00,34.9,33.3,30.17,NNW,342,5.8,5.8,94,0.00,-DZ,FEW,1.98,WeatherDisplay:10.37,2013-01-13 23:46:00,
2013-01-13 17:51:00,34.8,33.2,30.16,NNW,329,5.8,5.8,94,0.00,OVC,FEW,1.98,WeatherDisplay:10.37,2013-01-13 23:51:00,
2013-01-13 17:56:00,34.9,33.3,30.16,NW,319,3.5,3.5,94,0.00,OVC,FEW,1.98,WeatherDisplay:10.37,2013-01-13 23:56:00,
2013-01-13 18:01:00,34.8,33.2,30.16,WNW,283,5.8,5.8,94,0.00,OVC,FEW,1.98,WeatherDisplay:10.37,2013-01-14 00:01:00,
2013-01-13 18:06:00,34.7,33.2,30.16,NW,323,5.8,5.8,94,0.00,OVC,FEW,1.98,WeatherDisplay:10.37,2013-01-14 00:06:00,
2013-01-13 18:11:00,34.8,33.2,30.16,WNW,297,5.8,5.8,94,0.00,OVC,FEW,1.98,WeatherDisplay:10.37,2013-01-14 00:11:00,
2013-01-13 18:16:00,34.8,33.2,30.17,WNW,289,5.8,5.8,94,0.00,OVC,FEW,1.98,WeatherDisplay:10.37,2013-01-14 00:16:00,
2013-01-13 18:21:00,34.8,33.2,30.17,North,5,10.4,10.4,94,0.00,OVC,FEW,1.98,WeatherDisplay:10.37,2013-01-14 00:21:00,
2013-01-13 18:26:00,34.8,33.2,30.17,NW,304,5.8,5.8,94,0.00,OVC,FEW,1.98,WeatherDisplay:10.37,2013-01-14 00:26:00,
2013-01-13 18:31:00,35.0,33.7,30.17,NNW,348,4.6,4.6,95,0.00,OVC,FEW,1.98,WeatherDisplay:10.37,2013-01-14 00:31:00,
2013-01-13 18:36:00,34.8,33.0,30.17,WNW,300,8.1,8.1,93,0.00,OVC,FEW,1.98,WeatherDisplay:10.37,2013-01-14 00:36:00,
2013-01-13 18:41:00,34.7,32.9,30.17,NW,320,8.1,8.1,93,0.00,OVC,FEW,1.98,WeatherDisplay:10.37,2013-01-14 00:41:00,
2013-01-13 18:46:00,34.7,32.9,30.18,NW,325,8.1,8.1,93,0.00,OVC,FEW,1.98,WeatherDisplay:10.37,2013-01-14 00:46:00,
2013-01-13 18:51:00,34.7,32.9,30.18,NW,306,6.9,6.9,93,0.00,OVC,FEW,1.98,WeatherDisplay:10.37,2013-01-14 00:51:00,
2013-01-13 18:56:00,34.7,32.9,30.18,North,355,8.1,8.1,93,0.00,OVC,FEW,1.98,WeatherDisplay:10.37,2013-01-14 00:56:00,
2013-01-13 19:01:00,34.7,32.9,30.18,WNW,302,2.3,2.3,93,0.00,OVC,FEW,1.98,WeatherDisplay:10.37,2013-01-14 01:01:00,
2013-01-13 19:06:00,34.7,32.9,30.18,North,5,5.8,5.8,93,0.00,OVC,FEW,1.98,WeatherDisplay:10.37,2013-01-14 01:06:00,
2013-01-13 19:11:00,34.7,32.9,30.18,NNW,346,5.8,5.8,93,0.00,OVC,FEW,1.98,WeatherDisplay:10.37,2013-01-14 01:11:00,
2013-01-13 19:16:00,34.7,33.2,30.19,WNW,298,5.8,5.8,94,0.00,OVC,FEW,1.98,WeatherDisplay:10.37,2013-01-14 01:16:00,
2013-01-13 19:22:00,34.8,33.2,30.19,North,10,5.8,5.8,94,0.00,OVC,FEW,1.98,WeatherDisplay:10.37,2013-01-14 01:22:00,
2013-01-13 19:26:00,34.7,32.9,30.19,NNW,344,8.1,8.1,93,0.00,OVC,FEW,1.98,WeatherDisplay:10.37,2013-01-14 01:26:00,
2013-01-13 19:32:00,34.6,32.8,30.19,NNW,331,3.5,3.5,93,0.00,OVC,FEW,1.98,WeatherDisplay:10.37,2013-01-14 01:32:00,
2013-01-13 19:37:00,34.6,32.8,30.19,NW,307,8.1,8.1,93,0.00,OVC,FEW,1.98,WeatherDisplay:10.37,2013-01-14 01:37:00,
2013-01-13 19:42:00,34.5,32.7,30.19,WNW,289,6.9,6.9,93,0.00,OVC,FEW,1.98,WeatherDisplay:10.37,2013-01-14 01:42:00,
2013-01-13 19:47:00,34.5,33.0,30.20,North,5,5.8,5.8,94,0.00,OVC,FEW,1.98,WeatherDisplay:10.37,2013-01-14 01:47:00,
2013-01-13 19:52:00,34.5,32.7,30.20,NNW,327,3.5,3.5,93,0.00,OVC,FEW,1.98,WeatherDisplay:10.37,2013-01-14 01:52:00,
2013-01-13 19:57:00,34.6,33.1,30.20,NW,304,4.6,4.6,94,0.00,OVC,FEW,1.98,WeatherDisplay:10.37,2013-01-14 01:57:00,
2013-01-13 20:02:00,34.6,33.1,30.21,WSW,249,5.8,5.8,94,0.00,OVC,FEW,1.98,WeatherDisplay:10.37,2013-01-14 02:02:00,
2013-01-13 20:07:00,34.4,32.6,30.21,West,266,9.2,9.2,93,0.00,OVC,FEW,1.98,WeatherDisplay:10.37,2013-01-14 02:07:00,
2013-01-13 20:12:00,34.4,32.6,30.22,NW,313,5.8,5.8,93,0.00,OVC,FEW,1.98,WeatherDisplay:10.37,2013-01-14 02:12:00,
2013-01-13 20:17:00,34.3,32.2,30.21,WNW,295,9.2,9.2,92,0.00,OVC,FEW,1.98,WeatherDisplay:10.37,2013-01-14 02:17:00,
2013-01-13 20:22:00,34.1,31.7,30.21,NW,313,5.8,5.8,91,0.00,OVC,FEW,1.98,WeatherDisplay:10.37,2013-01-14 02:22:00,
2013-01-13 20:27:00,34.0,31.4,30.22,West,281,9.6,9.6,90,0.00,OVC,FEW,1.98,WeatherDisplay:10.37,2013-01-14 02:27:00,
2013-01-13 20:32:00,33.9,31.3,30.21,West,278,9.2,9.2,90,0.00,OVC,FEW,1.98,WeatherDisplay:10.37,2013-01-14 02:32:00,
2013-01-13 20:37:00,33.8,30.9,30.22,NW,304,8.1,8.1,89,0.00,SCT,FEW,1.98,WeatherDisplay:10.37,2013-01-14 02:37:00,
2013-01-13 20:42:00,33.6,30.4,30.22,NNW,338,8.1,8.1,88,0.00,SCT,FEW,1.98,WeatherDisplay:10.37,2013-01-14 02:42:00,
2013-01-13 20:47:00,33.5,30.6,30.23,WNW,295,5.8,5.8,89,0.00,SCT,FEW,1.98,WeatherDisplay:10.37,2013-01-14 02:47:00,
2013-01-13 20:52:00,33.3,30.1,30.23,North,5,9.2,9.2,88,0.00,BKN,FEW,1.98,WeatherDisplay:10.37,2013-01-14 02:52:00,
2013-01-13 20:57:00,33.1,29.9,30.23,North,350,8.1,8.1,88,0.00,BKN,FEW,1.98,WeatherDisplay:10.37,2013-01-14 02:57:00,
2013-01-13 21:02:00,33.0,29.8,30.23,NW,306,8.1,8.1,88,0.00,OVC,FEW,1.98,WeatherDisplay:10.37,2013-01-14 03:02:00,
2013-01-13 21:07:00,32.8,29.4,30.24,NW,319,8.1,8.1,87,0.00,OVC,FEW,1.98,WeatherDisplay:10.37,2013-01-14 03:07:00,
2013-01-13 21:12:00,32.8,29.6,30.24,NNW,345,5.4,5.4,88,0.00,OVC,FEW,1.98,WeatherDisplay:10.37,2013-01-14 03:12:00,
2013-01-13 21:17:00,32.5,28.8,30.25,WNW,294,10.4,10.4,86,0.00,OVC,FEW,1.98,WeatherDisplay:10.37,2013-01-14 03:17:00,
2013-01-13 21:22:00,32.3,28.9,30.25,WNW,302,6.9,6.9,87,0.00,OVC,FEW,1.98,WeatherDisplay:10.37,2013-01-14 03:22:00,
2013-01-13 21:27:00,32.2,28.8,30.25,WNW,282,8.1,8.1,87,0.00,OVC,FEW,1.98,WeatherDisplay:10.37,2013-01-14 03:27:00,
2013-01-13 21:32:00,32.1,28.4,30.25,WNW,303,5.8,5.8,86,0.00,OVC,FEW,1.98,WeatherDisplay:10.37,2013-01-14 03:32:00,
2013-01-13 21:37:00,32.1,28.7,30.25,North,355,6.9,6.9,87,0.00,OVC,FEW,1.98,WeatherDisplay:10.37,2013-01-14 03:37:00,
2013-01-13 21:42:00,32.0,28.8,30.25,NW,308,2.3,2.3,88,0.00,OVC,FEW,1.98,WeatherDisplay:10.37,2013-01-14 03:42:00,
2013-01-13 21:47:00,32.1,28.9,30.25,NNW,329,8.1,8.1,88,0.00,OVC,FEW,1.98,WeatherDisplay:10.37,2013-01-14 03:47:00,
2013-01-13 21:52:00,32.0,28.6,30.26,WNW,302,4.6,4.6,87,0.00,OVC,FEW,1.98,WeatherDisplay:10.37,2013-01-14 03:52:00,
2013-01-13 21:57:00,32.0,28.8,30.26,WNW,299,3.2,3.2,88,0.00,OVC,FEW,1.98,WeatherDisplay:10.37,2013-01-14 03:57:00,
2013-01-13 22:02:00,31.9,28.5,30.27,WNW,290,5.8,5.8,87,0.00,OVC,FEW,1.98,WeatherDisplay:10.37,2013-01-14 04:02:00,
2013-01-13 22:07:00,31.8,28.4,30.26,NW,319,5.8,5.8,87,0.00,OVC,FEW,1.98,WeatherDisplay:10.37,2013-01-14 04:07:00,
2013-01-13 22:12:00,31.7,28.3,30.27,North,355,5.8,5.8,87,0.00,OVC,FEW,1.98,WeatherDisplay:10.37,2013-01-14 04:12:00,
2013-01-13 22:17:00,31.6,28.5,30.26,NW,323,6.9,6.9,88,0.00,OVC,FEW,1.98,WeatherDisplay:10.37,2013-01-14 04:17:00,
2013-01-13 22:22:00,31.5,28.4,30.26,WNW,288,6.9,6.9,88,0.00,OVC,FEW,1.98,WeatherDisplay:10.37,2013-01-14 04:22:00,
2013-01-13 22:27:00,31.5,28.4,30.27,North,350,5.8,5.8,88,0.00,OVC,FEW,1.98,WeatherDisplay:10.37,2013-01-14 04:27:00,
2013-01-13 22:32:00,31.5,28.4,30.27,NNW,339,6.9,6.9,88,0.00,OVC,FEW,1.98,WeatherDisplay:10.37,2013-01-14 04:32:00,
2013-01-13 22:37:00,31.5,28.4,30.27,NW,313,8.1,8.1,88,0.00,BKN,FEW,1.98,WeatherDisplay:10.37,2013-01-14 04:37:00,
2013-01-13 22:42:00,31.4,28.0,30.27,NW,315,4.6,4.6,87,0.00,BKN,FEW,1.98,WeatherDisplay:10.37,2013-01-14 04:42:00,
2013-01-13 22:47:00,31.4,28.3,30.28,NNW,341,5.8,5.8,88,0.00,BKN,FEW,1.98,WeatherDisplay:10.37,2013-01-14 04:47:00,
2013-01-13 22:52:00,31.4,28.3,30.28,West,275,4.6,4.6,88,0.00,SCT,FEW,1.98,WeatherDisplay:10.37,2013-01-14 04:52:00,
2013-01-13 22:57:00,31.4,28.3,30.28,NNE,14,8.1,8.1,88,0.00,SCT,FEW,1.98,WeatherDisplay:10.37,2013-01-14 04:57:00,
2013-01-13 23:01:00,31.4,28.3,30.28,NNW,343,5.8,5.8,88,0.00,SCT,FEW,1.98,WeatherDisplay:10.37,2013-01-14 05:01:00,
2013-01-13 23:02:00,31.4,28.3,30.28,North,355,6.4,6.4,88,0.00,FEW,,1.98,WeatherDisplay:10.37,2013-01-14 05:02:00,
2013-01-13 23:03:00,31.4,28.3,30.28,NW,321,6.9,6.9,88,0.00,FEW,,1.98,WeatherDisplay:10.37,2013-01-14 05:03:00,
2013-01-13 23:08:00,31.4,28.5,30.28,North,350,6.9,6.9,89,0.00,FEW,,1.98,WeatherDisplay:10.37,2013-01-14 05:08:00,
2013-01-13 23:13:00,31.3,27.6,30.28,North,11,8.1,8.1,86,0.00,FEW,,1.98,WeatherDisplay:10.37,2013-01-14 05:13:00,
2013-01-13 23:18:00,31.0,27.0,30.28,North,360,8.1,8.1,85,0.00,FEW,,1.98,WeatherDisplay:10.37,2013-01-14 05:18:00,
2013-01-13 23:23:00,30.8,27.1,30.29,North,360,3.5,3.5,86,0.00,FEW,,1.98,WeatherDisplay:10.37,2013-01-14 05:23:00,
2013-01-13 23:28:00,30.7,27.0,30.29,NW,309,6.9,6.9,86,0.00,FEW,,1.98,WeatherDisplay:10.37,2013-01-14 05:28:00,
2013-01-13 23:33:00,30.7,27.3,30.29,North,351,8.6,8.6,87,0.00,FEW,,1.98,WeatherDisplay:10.37,2013-01-14 05:33:00,
2013-01-13 23:38:00,30.7,27.3,30.29,North,9,2.3,2.3,87,0.00,FEW,,1.98,WeatherDisplay:10.37,2013-01-14 05:38:00,
2013-01-13 23:43:00,30.6,26.9,30.29,North,350,8.1,8.1,86,0.00,FEW,,1.98,WeatherDisplay:10.37,2013-01-14 05:43:00,
2013-01-13 23:48:00,30.6,26.6,30.30,NW,309,5.8,5.8,85,0.00,FEW,,1.98,WeatherDisplay:10.37,2013-01-14 05:48:00,
2013-01-13 23:53:00,30.5,26.5,30.29,North,5,9.2,9.2,85,0.00,FEW,,1.98,WeatherDisplay:10.37,2013-01-14 05:53:00,
2013-01-13 23:58:00,30.5,26.8,30.30,NNW,346,8.1,8.1,86,0.00,FEW,,1.98,WeatherDisplay:10.37,2013-01-14 05:58:00,